sensor_id;sensor_type;location;lat;lon;timestamp;pressure;altitude;pressure_sealevel;temperature;humidity
11314;BME280;5712;48.858;9.206;2023-02-04T00:02:21;99379.63;;;7.31;100.00
11314;BME280;5712;48.858;9.206;2023-02-04T00:04:49;99379.75;;;7.28;100.00
11314;BME280;5712;48.858;9.206;2023-02-04T00:07:16;99385.97;;;7.26;100.00
11314;BME280;5712;48.858;9.206;2023-02-04T00:09:43;99389.50;;;7.24;100.00
11314;BME280;5712;48.858;9.206;2023-02-04T00:12:10;99379.97;;;7.22;100.00
11314;BME280;5712;48.858;9.206;2023-02-04T00:14:37;99387.72;;;7.25;100.00
11314;BME280;5712;48.858;9.206;2023-02-04T00:17:03;99397.34;;;7.26;100.00
11314;BME280;5712;48.858;9.206;2023-02-04T00:19:31;99388.66;;;7.24;100.00
11314;BME280;5712;48.858;9.206;2023-02-04T00:21:59;99381.47;;;7.29;100.00
11314;BME280;5712;48.858;9.206;2023-02-04T00:24:28;99388.53;;;7.27;100.00
11314;BME280;5712;48.858;9.206;2023-02-04T00:26:55;99393.88;;;7.26;100.00
11314;BME280;5712;48.858;9.206;2023-02-04T00:29:21;99386.13;;;7.21;100.00
11314;BME280;5712;48.858;9.206;2023-02-04T00:31:48;99392.28;;;7.20;100.00
11314;BME280;5712;48.858;9.206;2023-02-04T00:34:14;99394.63;;;7.29;100.00
11314;BME280;5712;48.858;9.206;2023-02-04T00:36:42;99392.72;;;7.32;100.00
11314;BME280;5712;48.858;9.206;2023-02-04T00:39:10;99390.78;;;7.38;100.00
11314;BME280;5712;48.858;9.206;2023-02-04T00:41:36;99395.88;;;7.42;100.00
11314;BME280;5712;48.858;9.206;2023-02-04T00:44:03;99397.69;;;7.40;100.00
11314;BME280;5712;48.858;9.206;2023-02-04T00:46:30;99403.88;;;7.39;100.00
11314;BME280;5712;48.858;9.206;2023-02-04T00:48:56;99396.78;;;7.41;100.00
11314;BME280;5712;48.858;9.206;2023-02-04T00:51:22;99403.78;;;7.42;100.00
11314;BME280;5712;48.858;9.206;2023-02-04T00:53:49;99397.75;;;7.38;100.00
11314;BME280;5712;48.858;9.206;2023-02-04T00:56:17;99394.16;;;7.41;100.00
11314;BME280;5712;48.858;9.206;2023-02-04T00:58:43;99397.63;;;7.41;100.00
11314;BME280;5712;48.858;9.206;2023-02-04T01:01:10;99396.09;;;7.36;100.00
11314;BME280;5712;48.858;9.206;2023-02-04T01:03:36;99400.44;;;7.37;100.00
11314;BME280;5712;48.858;9.206;2023-02-04T01:06:03;99402.38;;;7.32;100.00
11314;BME280;5712;48.858;9.206;2023-02-04T01:08:29;99379.66;;;7.29;100.00
11314;BME280;5712;48.858;9.206;2023-02-04T01:10:56;99410.25;;;7.32;100.00
11314;BME280;5712;48.858;9.206;2023-02-04T01:13:24;99403.34;;;7.29;100.00
11314;BME280;5712;48.858;9.206;2023-02-04T01:15:50;99399.13;;;7.26;100.00
11314;BME280;5712;48.858;9.206;2023-02-04T01:18:17;99386.94;;;7.23;100.00
11314;BME280;5712;48.858;9.206;2023-02-04T01:20:43;99399.25;;;7.21;100.00
11314;BME280;5712;48.858;9.206;2023-02-04T01:23:10;99398.53;;;7.18;100.00
11314;BME280;5712;48.858;9.206;2023-02-04T01:25:36;99411.75;;;7.16;100.00
11314;BME280;5712;48.858;9.206;2023-02-04T01:28:03;99411.84;;;7.13;100.00
11314;BME280;5712;48.858;9.206;2023-02-04T01:30:31;99421.59;;;7.10;100.00
11314;BME280;5712;48.858;9.206;2023-02-04T01:32:57;99411.13;;;7.08;100.00
11314;BME280;5712;48.858;9.206;2023-02-04T01:35:24;99420.84;;;7.06;100.00
11314;BME280;5712;48.858;9.206;2023-02-04T01:37:50;99424.50;;;7.02;100.00
11314;BME280;5712;48.858;9.206;2023-02-04T01:40:17;99421.94;;;7.01;100.00
11314;BME280;5712;48.858;9.206;2023-02-04T01:42:44;99435.13;;;6.99;100.00
11314;BME280;5712;48.858;9.206;2023-02-04T01:45:10;99428.19;;;6.97;100.00
11314;BME280;5712;48.858;9.206;2023-02-04T01:47:38;99431.78;;;6.94;100.00
11314;BME280;5712;48.858;9.206;2023-02-04T01:50:06;99436.13;;;6.95;100.00
11314;BME280;5712;48.858;9.206;2023-02-04T01:52:35;99422.91;;;6.98;100.00
11314;BME280;5712;48.858;9.206;2023-02-04T01:55:02;99422.91;;;6.98;100.00
11314;BME280;5712;48.858;9.206;2023-02-04T01:57:31;99440.38;;;6.99;100.00
11314;BME280;5712;48.858;9.206;2023-02-04T01:59:58;99437.63;;;7.02;100.00
11314;BME280;5712;48.858;9.206;2023-02-04T02:02:41;99443.72;;;7.04;100.00
11314;BME280;5712;48.858;9.206;2023-02-04T02:05:09;99436.66;;;7.05;100.00
11314;BME280;5712;48.858;9.206;2023-02-04T02:07:36;99443.72;;;7.04;100.00
11314;BME280;5712;48.858;9.206;2023-02-04T02:10:05;99450.59;;;7.07;100.00
11314;BME280;5712;48.858;9.206;2023-02-04T02:12:31;99461.00;;;7.11;100.00
11314;BME280;5712;48.858;9.206;2023-02-04T02:14:59;99468.00;;;7.11;100.00
11314;BME280;5712;48.858;9.206;2023-02-04T02:17:25;99459.06;;;7.16;100.00
11314;BME280;5712;48.858;9.206;2023-02-04T02:19:54;99466.88;;;7.18;100.00
11314;BME280;5712;48.858;9.206;2023-02-04T02:22:24;99462.88;;;7.08;100.00
11314;BME280;5712;48.858;9.206;2023-02-04T02:24:53;99464.75;;;7.04;100.00
11314;BME280;5712;48.858;9.206;2023-02-04T02:27:21;99467.97;;;7.12;100.00
11314;BME280;5712;48.858;9.206;2023-02-04T02:29:48;99484.50;;;7.16;100.00
11314;BME280;5712;48.858;9.206;2023-02-04T02:32:15;99489.09;;;7.09;100.00
11314;BME280;5712;48.858;9.206;2023-02-04T02:34:42;99493.50;;;7.09;100.00
11314;BME280;5712;48.858;9.206;2023-02-04T02:37:09;99485.63;;;7.09;100.00
11314;BME280;5712;48.858;9.206;2023-02-04T02:39:37;99482.88;;;7.12;100.00
11314;BME280;5712;48.858;9.206;2023-02-04T02:42:06;99473.22;;;7.12;100.00
11314;BME280;5712;48.858;9.206;2023-02-04T02:44:33;99467.22;;;7.09;100.00
11314;BME280;5712;48.858;9.206;2023-02-04T02:47:00;99469.00;;;7.07;100.00
11314;BME280;5712;48.858;9.206;2023-02-04T02:49:30;99466.34;;;7.08;100.00
11314;BME280;5712;48.858;9.206;2023-02-04T02:51:57;99477.00;;;7.04;100.00
11314;BME280;5712;48.858;9.206;2023-02-04T02:54:27;99480.59;;;7.01;100.00
11314;BME280;5712;48.858;9.206;2023-02-04T02:56:54;99487.56;;;7.02;100.00
11314;BME280;5712;48.858;9.206;2023-02-04T02:59:23;99497.50;;;6.94;100.00
11314;BME280;5712;48.858;9.206;2023-02-04T03:01:53;99494.75;;;6.97;100.00
11314;BME280;5712;48.858;9.206;2023-02-04T03:04:22;99493.88;;;6.98;100.00
11314;BME280;5712;48.858;9.206;2023-02-04T03:06:51;99503.56;;;6.96;100.00
11314;BME280;5712;48.858;9.206;2023-02-04T03:09:18;99506.34;;;6.92;100.00
11314;BME280;5712;48.858;9.206;2023-02-04T03:11:45;99510.63;;;6.94;100.00
11314;BME280;5712;48.858;9.206;2023-02-04T03:14:11;99513.44;;;6.90;100.00
11314;BME280;5712;48.858;9.206;2023-02-04T03:16:39;99517.81;;;6.89;100.00
11314;BME280;5712;48.858;9.206;2023-02-04T03:19:08;99522.34;;;6.84;100.00
11314;BME280;5712;48.858;9.206;2023-02-04T03:21:35;99526.84;;;6.81;100.00
11314;BME280;5712;48.858;9.206;2023-02-04T03:24:02;99529.47;;;6.81;100.00
11314;BME280;5712;48.858;9.206;2023-02-04T03:26:29;99531.25;;;6.80;100.00
11314;BME280;5712;48.858;9.206;2023-02-04T03:28:55;99526.81;;;6.82;100.00
11314;BME280;5712;48.858;9.206;2023-02-04T03:31:22;99537.50;;;6.76;100.00
11314;BME280;5712;48.858;9.206;2023-02-04T03:33:50;99538.31;;;6.78;100.00
11314;BME280;5712;48.858;9.206;2023-02-04T03:36:16;99534.94;;;6.75;100.00
11314;BME280;5712;48.858;9.206;2023-02-04T03:38:44;99544.59;;;6.74;100.00
11314;BME280;5712;48.858;9.206;2023-02-04T03:41:10;99547.34;;;6.70;100.00
11314;BME280;5712;48.858;9.206;2023-02-04T03:43:37;99543.75;;;6.72;100.00
11314;BME280;5712;48.858;9.206;2023-02-04T03:46:03;99557.09;;;6.66;100.00
11314;BME280;5712;48.858;9.206;2023-02-04T03:48:30;99551.84;;;6.66;100.00
11314;BME280;5712;48.858;9.206;2023-02-04T03:50:58;99551.06;;;6.63;100.00
11314;BME280;5712;48.858;9.206;2023-02-04T03:53:24;99559.91;;;6.60;100.00
11314;BME280;5712;48.858;9.206;2023-02-04T03:55:51;99560.81;;;6.59;100.00
11314;BME280;5712;48.858;9.206;2023-02-04T03:58:17;99569.59;;;6.58;100.00
11314;BME280;5712;48.858;9.206;2023-02-04T04:00:44;99574.97;;;6.55;100.00
11314;BME280;5712;48.858;9.206;2023-02-04T04:03:10;99580.22;;;6.55;100.00
11314;BME280;5712;48.858;9.206;2023-02-04T04:05:36;99591.69;;;6.53;100.00
11314;BME280;5712;48.858;9.206;2023-02-04T04:08:04;99586.53;;;6.48;100.00
11314;BME280;5712;48.858;9.206;2023-02-04T04:10:31;99591.09;;;6.43;100.00
11314;BME280;5712;48.858;9.206;2023-02-04T04:12:57;99588.50;;;6.42;100.00
11314;BME280;5712;48.858;9.206;2023-02-04T04:15:24;99587.75;;;6.38;100.00
11314;BME280;5712;48.858;9.206;2023-02-04T04:17:50;99589.34;;;6.42;100.00
11314;BME280;5712;48.858;9.206;2023-02-04T04:20:17;99590.31;;;6.40;100.00
11314;BME280;5712;48.858;9.206;2023-02-04T04:22:44;99589.34;;;6.42;100.00
11314;BME280;5712;48.858;9.206;2023-02-04T04:25:12;99598.25;;;6.38;100.00
11314;BME280;5712;48.858;9.206;2023-02-04T04:27:38;99601.78;;;6.37;100.00
11314;BME280;5712;48.858;9.206;2023-02-04T04:30:05;99608.75;;;6.38;100.00
11314;BME280;5712;48.858;9.206;2023-02-04T04:32:31;99608.81;;;6.35;100.00
11314;BME280;5712;48.858;9.206;2023-02-04T04:34:58;99613.13;;;6.38;100.00
11314;BME280;5712;48.858;9.206;2023-02-04T04:37:24;99611.44;;;6.35;100.00
11314;BME280;5712;48.858;9.206;2023-02-04T04:39:51;99616.88;;;6.29;100.00
11314;BME280;5712;48.858;9.206;2023-02-04T04:42:19;99626.56;;;6.27;100.00
11314;BME280;5712;48.858;9.206;2023-02-04T04:44:45;99620.38;;;6.30;100.00
11314;BME280;5712;48.858;9.206;2023-02-04T04:47:12;99621.50;;;6.21;100.00
11314;BME280;5712;48.858;9.206;2023-02-04T04:49:38;99619.81;;;6.19;100.00
11314;BME280;5712;48.858;9.206;2023-02-04T04:52:05;99621.50;;;6.21;100.00
11314;BME280;5712;48.858;9.206;2023-02-04T04:54:31;99625.09;;;6.17;100.00
11314;BME280;5712;48.858;9.206;2023-02-04T04:56:58;99619.81;;;6.19;100.00
11314;BME280;5712;48.858;9.206;2023-02-04T04:59:25;99619.94;;;6.14;100.00
11314;BME280;5712;48.858;9.206;2023-02-04T05:01:52;99627.69;;;6.19;100.00
11314;BME280;5712;48.858;9.206;2023-02-04T05:04:18;99627.81;;;6.14;100.00
11314;BME280;5712;48.858;9.206;2023-02-04T05:06:45;99626.91;;;6.15;100.00
11314;BME280;5712;48.858;9.206;2023-02-04T05:09:11;99627.81;;;6.14;100.00
11314;BME280;5712;48.858;9.206;2023-02-04T05:11:39;99627.09;;;6.09;100.00
11314;BME280;5712;48.858;9.206;2023-02-04T05:14:05;99627.09;;;6.09;100.00
11314;BME280;5712;48.858;9.206;2023-02-04T05:16:33;99627.19;;;6.06;100.00
11314;BME280;5712;48.858;9.206;2023-02-04T05:19:00;99627.25;;;6.03;100.00
11314;BME280;5712;48.858;9.206;2023-02-04T05:21:26;99626.44;;;6.01;100.00
11314;BME280;5712;48.858;9.206;2023-02-04T05:23:52;99639.56;;;6.01;100.00
11314;BME280;5712;48.858;9.206;2023-02-04T05:26:19;99638.69;;;6.01;100.00
11314;BME280;5712;48.858;9.206;2023-02-04T05:28:45;99628.22;;;5.99;100.00
11314;BME280;5712;48.858;9.206;2023-02-04T05:31:12;99642.19;;;6.01;100.00
11314;BME280;5712;48.858;9.206;2023-02-04T05:33:40;99646.59;;;5.99;100.00
11314;BME280;5712;48.858;9.206;2023-02-04T05:36:06;99649.28;;;5.98;100.00
11314;BME280;5712;48.858;9.206;2023-02-04T05:38:33;99640.53;;;5.97;100.00
11314;BME280;5712;48.858;9.206;2023-02-04T05:40:59;99639.72;;;5.95;100.00
11314;BME280;5712;48.858;9.206;2023-02-04T05:43:26;99643.25;;;5.94;100.00
11314;BME280;5712;48.858;9.206;2023-02-04T05:45:52;99645.88;;;5.94;100.00
11314;BME280;5712;48.858;9.206;2023-02-04T05:48:19;99629.16;;;5.97;100.00
11314;BME280;5712;48.858;9.206;2023-02-04T05:50:46;99642.34;;;5.95;100.00
11314;BME280;5712;48.858;9.206;2023-02-04T05:53:13;99643.25;;;5.94;100.00
11314;BME280;5712;48.858;9.206;2023-02-04T05:55:39;99645.03;;;5.92;100.00
11314;BME280;5712;48.858;9.206;2023-02-04T05:58:06;99639.91;;;5.89;100.00
11314;BME280;5712;48.858;9.206;2023-02-04T06:00:32;99647.81;;;5.88;100.00
11314;BME280;5712;48.858;9.206;2023-02-04T06:02:59;99653.13;;;5.85;100.00
11314;BME280;5712;48.858;9.206;2023-02-04T06:05:25;99659.34;;;5.82;100.00
11314;BME280;5712;48.858;9.206;2023-02-04T06:07:53;99668.94;;;5.82;100.00
11314;BME280;5712;48.858;9.206;2023-02-04T06:10:19;99668.13;;;5.78;100.00
11314;BME280;5712;48.858;9.206;2023-02-04T06:12:46;99677.81;;;5.76;100.00
11314;BME280;5712;48.858;9.206;2023-02-04T06:15:13;99680.44;;;5.76;100.00
11314;BME280;5712;48.858;9.206;2023-02-04T06:17:40;99691.00;;;5.73;100.00
11314;BME280;5712;48.858;9.206;2023-02-04T06:20:07;99691.09;;;5.70;100.00
11314;BME280;5712;48.858;9.206;2023-02-04T06:22:34;99689.34;;;5.69;100.00
11314;BME280;5712;48.858;9.206;2023-02-04T06:25:02;99695.50;;;5.68;100.00
11314;BME280;5712;48.858;9.206;2023-02-04T06:27:29;99691.16;;;5.67;100.00
11314;BME280;5712;48.858;9.206;2023-02-04T06:29:55;99698.34;;;5.61;100.00
11314;BME280;5712;48.858;9.206;2023-02-04T06:32:22;99693.25;;;5.53;100.00
11314;BME280;5712;48.858;9.206;2023-02-04T06:34:49;99696.78;;;5.52;100.00
11314;BME280;5712;48.858;9.206;2023-02-04T06:37:17;99694.09;;;5.54;100.00
11314;BME280;5712;48.858;9.206;2023-02-04T06:39:44;99704.56;;;5.55;100.00
11314;BME280;5712;48.858;9.206;2023-02-04T06:42:12;99701.91;;;5.57;100.00
11314;BME280;5712;48.858;9.206;2023-02-04T06:44:38;99714.16;;;5.56;100.00
11314;BME280;5712;48.858;9.206;2023-02-04T06:47:05;99718.41;;;5.62;100.00
11314;BME280;5712;48.858;9.206;2023-02-04T06:49:32;99716.63;;;5.62;100.00
11314;BME280;5712;48.858;9.206;2023-02-04T06:51:58;99713.16;;;5.62;100.00
11314;BME280;5712;48.858;9.206;2023-02-04T06:54:25;99711.34;;;5.64;100.00
11314;BME280;5712;48.858;9.206;2023-02-04T06:56:51;99729.53;;;5.71;100.00
11314;BME280;5712;48.858;9.206;2023-02-04T06:59:19;99735.78;;;5.66;100.00
11314;BME280;5712;48.858;9.206;2023-02-04T07:01:45;99740.09;;;5.68;100.00
11314;BME280;5712;48.858;9.206;2023-02-04T07:04:12;99740.06;;;5.70;100.00
11314;BME280;5712;48.858;9.206;2023-02-04T07:06:38;99742.69;;;5.70;100.00
11314;BME280;5712;48.858;9.206;2023-02-04T07:09:05;99745.19;;;5.74;100.00
11314;BME280;5712;48.858;9.206;2023-02-04T07:11:31;99753.16;;;5.71;100.00
11314;BME280;5712;48.858;9.206;2023-02-04T07:13:58;99743.41;;;5.76;100.00
11314;BME280;5712;48.858;9.206;2023-02-04T07:16:25;99762.72;;;5.72;100.00
11314;BME280;5712;48.858;9.206;2023-02-04T07:18:52;99766.97;;;5.78;100.00
11314;BME280;5712;48.858;9.206;2023-02-04T07:21:18;99771.38;;;5.77;100.00
11314;BME280;5712;48.858;9.206;2023-02-04T07:23:45;99787.03;;;5.80;100.00
11314;BME280;5712;48.858;9.206;2023-02-04T07:26:12;99792.34;;;5.77;100.00
11314;BME280;5712;48.858;9.206;2023-02-04T07:28:38;99789.63;;;5.82;100.00
11314;BME280;5712;48.858;9.206;2023-02-04T07:31:06;99794.00;;;5.81;100.00
11314;BME280;5712;48.858;9.206;2023-02-04T07:33:34;99786.84;;;5.89;100.00
11314;BME280;5712;48.858;9.206;2023-02-04T07:36:00;99789.63;;;5.83;100.00
11314;BME280;5712;48.858;9.206;2023-02-04T07:38:27;99791.34;;;5.84;100.00
11314;BME280;5712;48.858;9.206;2023-02-04T07:40:53;99800.78;;;5.91;100.00
11314;BME280;5712;48.858;9.206;2023-02-04T07:43:20;99795.53;;;5.91;100.00
11314;BME280;5712;48.858;9.206;2023-02-04T07:45:47;99795.56;;;5.90;100.00
11314;BME280;5712;48.858;9.206;2023-02-04T07:48:13;99801.88;;;5.81;100.00
11314;BME280;5712;48.858;9.206;2023-02-04T07:50:41;99796.59;;;5.84;100.00
11314;BME280;5712;48.858;9.206;2023-02-04T07:53:08;99805.25;;;5.88;100.00
11314;BME280;5712;48.858;9.206;2023-02-04T07:55:34;99800.94;;;5.85;100.00
11314;BME280;5712;48.858;9.206;2023-02-04T07:58:01;99804.38;;;5.87;100.00
11314;BME280;5712;48.858;9.206;2023-02-04T08:00:27;99811.38;;;5.88;100.00
11314;BME280;5712;48.858;9.206;2023-02-04T08:02:54;99819.38;;;5.82;100.00
11314;BME280;5712;48.858;9.206;2023-02-04T08:05:20;99821.13;;;5.82;100.00
11314;BME280;5712;48.858;9.206;2023-02-04T08:07:48;99812.38;;;5.81;100.00
11314;BME280;5712;48.858;9.206;2023-02-04T08:10:14;99822.94;;;5.78;100.00
11314;BME280;5712;48.858;9.206;2023-02-04T08:12:41;99829.91;;;5.79;100.00
11314;BME280;5712;48.858;9.206;2023-02-04T08:15:08;99827.19;;;5.84;100.00
11314;BME280;5712;48.858;9.206;2023-02-04T08:17:34;99824.63;;;5.82;100.00
11314;BME280;5712;48.858;9.206;2023-02-04T08:20:01;99828.88;;;5.86;100.00
11314;BME280;5712;48.858;9.206;2023-02-04T08:22:28;99840.16;;;5.90;100.00
11314;BME280;5712;48.858;9.206;2023-02-04T08:24:56;99835.78;;;5.90;100.00
11314;BME280;5712;48.858;9.206;2023-02-04T08:27:22;99839.22;;;5.92;100.00
11314;BME280;5712;48.858;9.206;2023-02-04T08:29:49;99851.56;;;5.89;100.00
11314;BME280;5712;48.858;9.206;2023-02-04T08:32:15;99858.66;;;5.85;100.00
11314;BME280;5712;48.858;9.206;2023-02-04T08:34:42;99847.47;;;5.76;100.00
11314;BME280;5712;48.858;9.206;2023-02-04T08:37:09;99852.72;;;5.76;100.00
11314;BME280;5712;48.858;9.206;2023-02-04T08:39:35;99860.84;;;5.65;100.00
11314;BME280;5712;48.858;9.206;2023-02-04T08:42:04;99861.78;;;5.61;100.00
11314;BME280;5712;48.858;9.206;2023-02-04T08:44:30;99860.97;;;5.59;100.00
11314;BME280;5712;48.858;9.206;2023-02-04T08:46:57;99864.56;;;5.55;100.00
11314;BME280;5712;48.858;9.206;2023-02-04T08:49:23;99868.94;;;5.55;100.00
11314;BME280;5712;48.858;9.206;2023-02-04T08:51:49;99867.28;;;5.51;100.00
11314;BME280;5712;48.858;9.206;2023-02-04T08:54:16;99870.63;;;5.57;100.00
11314;BME280;5712;48.858;9.206;2023-02-04T08:56:42;99884.59;;;5.58;100.00
11314;BME280;5712;48.858;9.206;2023-02-04T08:59:10;99881.16;;;5.56;100.00
11314;BME280;5712;48.858;9.206;2023-02-04T09:01:37;99888.09;;;5.58;100.00
11314;BME280;5712;48.858;9.206;2023-02-04T09:04:03;99885.47;;;5.58;100.00
11314;BME280;5712;48.858;9.206;2023-02-04T09:06:30;99884.56;;;5.61;100.00
11314;BME280;5712;48.858;9.206;2023-02-04T09:08:56;99888.09;;;5.58;100.00
11314;BME280;5712;48.858;9.206;2023-02-04T09:11:23;99891.53;;;5.62;100.00
11314;BME280;5712;48.858;9.206;2023-02-04T09:13:50;99893.22;;;5.64;100.00
11314;BME280;5712;48.858;9.206;2023-02-04T09:16:18;99888.78;;;5.66;100.00
11314;BME280;5712;48.858;9.206;2023-02-04T09:18:44;99888.78;;;5.66;100.00
11314;BME280;5712;48.858;9.206;2023-02-04T09:21:11;99891.31;;;5.71;100.00
11314;BME280;5712;48.858;9.206;2023-02-04T09:23:37;99902.59;;;5.74;100.00
11314;BME280;5712;48.858;9.206;2023-02-04T09:26:04;99915.59;;;5.80;100.00
11314;BME280;5712;48.858;9.206;2023-02-04T09:28:33;99907.78;;;5.77;100.00
11314;BME280;5712;48.858;9.206;2023-02-04T09:30:59;99922.66;;;5.77;100.00
11314;BME280;5712;48.858;9.206;2023-02-04T09:33:27;99917.25;;;5.86;100.00
11314;BME280;5712;48.858;9.206;2023-02-04T09:35:54;99910.75;;;6.02;100.00
11314;BME280;5712;48.858;9.206;2023-02-04T09:38:20;99919.22;;;6.14;100.00
11314;BME280;5712;48.858;9.206;2023-02-04T09:40:50;99924.94;;;6.31;100.00
11314;BME280;5712;48.858;9.206;2023-02-04T09:43:21;99924.44;;;6.51;100.00
11314;BME280;5712;48.858;9.206;2023-02-04T09:45:49;99924.91;;;6.66;100.00
11314;BME280;5712;48.858;9.206;2023-02-04T09:48:16;99937.84;;;6.74;100.00
11314;BME280;5712;48.858;9.206;2023-02-04T09:50:45;99935.25;;;6.74;100.00
11314;BME280;5712;48.858;9.206;2023-02-04T09:53:13;99932.41;;;6.81;100.00
11314;BME280;5712;48.858;9.206;2023-02-04T09:55:43;99929.63;;;6.87;100.00
11314;BME280;5712;48.858;9.206;2023-02-04T09:58:12;99919.00;;;6.92;100.00
11314;BME280;5712;48.858;9.206;2023-02-04T10:00:40;99911.88;;;6.95;100.00
11314;BME280;5712;48.858;9.206;2023-02-04T10:03:12;99909.09;;;7.01;100.00
11314;BME280;5712;48.858;9.206;2023-02-04T10:05:39;99903.97;;;7.27;97.51
11314;BME280;5712;48.858;9.206;2023-02-04T10:08:12;99902.72;;;7.40;94.74
11314;BME280;5712;48.858;9.206;2023-02-04T10:10:39;99887.59;;;7.48;86.88
11314;BME280;5712;48.858;9.206;2023-02-04T10:13:12;99883.31;;;7.44;83.14
11314;BME280;5712;48.858;9.206;2023-02-04T10:15:40;99883.88;;;7.55;83.01
11314;BME280;5712;48.858;9.206;2023-02-04T10:18:07;99888.53;;;7.45;81.72
11314;BME280;5712;48.858;9.206;2023-02-04T10:20:34;99894.81;;;7.40;82.76
11314;BME280;5712;48.858;9.206;2023-02-04T10:23:00;99905.34;;;7.40;85.48
11314;BME280;5712;48.858;9.206;2023-02-04T10:25:28;99909.28;;;7.56;85.84
11314;BME280;5712;48.858;9.206;2023-02-04T10:27:56;99902.38;;;7.52;83.75
11314;BME280;5712;48.858;9.206;2023-02-04T10:30:25;99906.56;;;7.59;84.98
11314;BME280;5712;48.858;9.206;2023-02-04T10:32:52;99901.16;;;7.63;85.03
11314;BME280;5712;48.858;9.206;2023-02-04T10:35:21;99889.03;;;7.58;84.25
11314;BME280;5712;48.858;9.206;2023-02-04T10:38:01;99890.59;;;7.65;85.51
11314;BME280;5712;48.858;9.206;2023-02-04T10:40:30;99882.06;;;7.57;83.38
11314;BME280;5712;48.858;9.206;2023-02-04T10:42:57;99888.59;;;7.73;83.43
11314;BME280;5712;48.858;9.206;2023-02-04T10:45:26;99879.78;;;7.74;82.81
11314;BME280;5712;48.858;9.206;2023-02-04T10:47:54;99894.72;;;8.01;85.06
11314;BME280;5712;48.858;9.206;2023-02-04T10:50:23;99895.81;;;8.23;84.55
11314;BME280;5712;48.858;9.206;2023-02-04T10:52:52;99868.72;;;8.19;78.43
11314;BME280;5712;48.858;9.206;2023-02-04T10:55:42;99868.06;;;8.11;78.73
11314;BME280;5712;48.858;9.206;2023-02-04T10:58:10;99863.91;;;8.04;78.29
11314;BME280;5712;48.858;9.206;2023-02-04T11:00:37;99861.31;;;8.03;77.41
11314;BME280;5712;48.858;9.206;2023-02-04T11:03:08;99863.72;;;7.83;77.11
11314;BME280;5712;48.858;9.206;2023-02-04T11:05:36;99873.00;;;7.94;76.55
11314;BME280;5712;48.858;9.206;2023-02-04T11:08:17;99873.66;;;8.01;76.91
11314;BME280;5712;48.858;9.206;2023-02-04T11:10:49;99890.50;;;7.95;79.69
11314;BME280;5712;48.858;9.206;2023-02-04T11:13:21;99893.72;;;8.05;78.91
11314;BME280;5712;48.858;9.206;2023-02-04T11:15:49;99887.53;;;8.06;77.31
11314;BME280;5712;48.858;9.206;2023-02-04T11:18:28;99881.63;;;7.99;77.34
11314;BME280;5712;48.858;9.206;2023-02-04T11:20:58;99871.03;;;8.01;75.46
11314;BME280;5712;48.858;9.206;2023-02-04T11:23:35;99863.91;;;8.04;75.01
11314;BME280;5712;48.858;9.206;2023-02-04T11:26:31;99872.47;;;8.11;76.88
11314;BME280;5712;48.858;9.206;2023-02-04T11:29:09;99870.56;;;8.16;76.78
11314;BME280;5712;48.858;9.206;2023-02-04T11:31:57;99860.72;;;8.22;75.14
11314;BME280;5712;48.858;9.206;2023-02-04T11:34:27;99865.91;;;8.24;76.13
11314;BME280;5712;48.858;9.206;2023-02-04T11:37:00;99865.72;;;8.30;74.48
11314;BME280;5712;48.858;9.206;2023-02-04T11:39:33;99862.47;;;8.22;73.94
11314;BME280;5712;48.858;9.206;2023-02-04T11:42:02;99848.31;;;8.26;73.69
11314;BME280;5712;48.858;9.206;2023-02-04T11:44:29;99851.94;;;8.22;73.11
11314;BME280;5712;48.858;9.206;2023-02-04T11:47:06;99857.22;;;8.22;74.98
11314;BME280;5712;48.858;9.206;2023-02-04T11:49:34;99861.41;;;8.27;74.89
11314;BME280;5712;48.858;9.206;2023-02-04T11:52:05;99865.63;;;8.33;75.39
11314;BME280;5712;48.858;9.206;2023-02-04T11:54:33;99866.44;;;8.35;75.04
11314;BME280;5712;48.858;9.206;2023-02-04T11:57:02;99866.34;;;8.38;74.77
11314;BME280;5712;48.858;9.206;2023-02-04T11:59:28;99853.22;;;8.36;73.25
11314;BME280;5712;48.858;9.206;2023-02-04T12:02:03;99846.91;;;8.40;71.64
11314;BME280;5712;48.858;9.206;2023-02-04T12:04:30;99829.25;;;8.44;69.87
11314;BME280;5712;48.858;9.206;2023-02-04T12:06:58;99831.78;;;8.47;68.13
11314;BME280;5712;48.858;9.206;2023-02-04T12:09:26;99842.31;;;8.47;69.04
11314;BME280;5712;48.858;9.206;2023-02-04T12:11:55;99834.16;;;8.54;67.12
11314;BME280;5712;48.858;9.206;2023-02-04T12:14:27;99845.47;;;8.58;68.58
11314;BME280;5712;48.858;9.206;2023-02-04T12:16:54;99859.13;;;8.69;69.82
11314;BME280;5712;48.858;9.206;2023-02-04T12:19:21;99830.00;;;8.72;66.55
11314;BME280;5712;48.858;9.206;2023-02-04T12:21:48;99831.31;;;8.85;66.08
11314;BME280;5712;48.858;9.206;2023-02-04T12:24:14;99834.84;;;9.08;66.73
11314;BME280;5712;48.858;9.206;2023-02-04T12:26:41;99839.25;;;9.08;66.43
11314;BME280;5712;48.858;9.206;2023-02-04T12:29:07;99857.84;;;9.05;67.63
11314;BME280;5712;48.858;9.206;2023-02-04T12:31:35;99871.28;;;8.97;70.56
11314;BME280;5712;48.858;9.206;2023-02-04T12:34:01;99862.34;;;8.77;69.38
11314;BME280;5712;48.858;9.206;2023-02-04T12:36:28;99882.44;;;8.81;72.74
11314;BME280;5712;48.858;9.206;2023-02-04T12:38:55;99864.81;;;8.57;70.26
11314;BME280;5712;48.858;9.206;2023-02-04T12:41:22;99863.84;;;8.33;69.65
11314;BME280;5712;48.858;9.206;2023-02-04T12:43:49;99885.06;;;8.29;72.43
11314;BME280;5712;48.858;9.206;2023-02-04T12:46:16;99897.66;;;8.21;74.39
11314;BME280;5712;48.858;9.206;2023-02-04T12:48:44;99904.88;;;8.13;74.48
11314;BME280;5712;48.858;9.206;2023-02-04T12:51:10;99890.28;;;8.03;74.43
11314;BME280;5712;48.858;9.206;2023-02-04T12:53:37;99893.13;;;7.97;73.92
11314;BME280;5712;48.858;9.206;2023-02-04T12:56:04;99902.88;;;7.93;74.97
11314;BME280;5712;48.858;9.206;2023-02-04T12:58:30;99898.38;;;7.97;75.68
11314;BME280;5712;48.858;9.206;2023-02-04T13:00:57;99907.75;;;8.05;76.37
11314;BME280;5712;48.858;9.206;2023-02-04T13:03:23;99902.34;;;8.10;75.22
11314;BME280;5712;48.858;9.206;2023-02-04T13:05:52;99889.13;;;8.11;72.84
11314;BME280;5712;48.858;9.206;2023-02-04T13:08:18;99895.13;;;8.16;75.43
11314;BME280;5712;48.858;9.206;2023-02-04T13:10:45;99899.34;;;8.22;75.40
11314;BME280;5712;48.858;9.206;2023-02-04T13:13:16;99878.50;;;8.14;73.49
11314;BME280;5712;48.858;9.206;2023-02-04T13:15:42;99883.81;;;8.13;73.04